Time;durP1;ratioP1;P1;durP2;ratioP2;P2;SDS_P1;SDS_P2;PMS_P1;PMS_P2;Temp;Humidity;BMP_temperature;BMP_pressure;BME280_temperature;BME280_humidity;BME280_pressure;Samples;Min_cycle;Max_cycle;Signal;HPM_P1;HPM_P2
2022/05/27 00:00:17;;;;;;;8.60;3.03;;;;;;;14.77;75.50;101877.63;5129218;27;20031;-66
2022/05/27 00:02:43;;;;;;;8.82;3.00;;;;;;;14.74;75.35;101887.53;5126290;27;20032;-62
2022/05/27 00:05:09;;;;;;;10.85;3.38;;;;;;;14.73;75.56;101876.22;5109391;28;20506;-63
2022/05/27 00:07:35;;;;;;;8.18;3.20;;;;;;;14.75;75.59;101863.88;5108891;27;20482;-67
2022/05/27 00:10:01;;;;;;;8.95;3.10;;;;;;;14.76;75.38;101864.69;5109296;28;20027;-63
2022/05/27 00:12:26;;;;;;;9.10;3.20;;;;;;;14.72;75.39;101864.13;5109034;28;20562;-62
2022/05/27 00:14:52;;;;;;;9.43;3.38;;;;;;;14.74;75.02;101872.69;5109058;28;20031;-63
2022/05/27 00:17:17;;;;;;;10.13;3.80;;;;;;;14.74;75.55;101872.69;5116215;27;20075;-62
2022/05/27 00:19:43;;;;;;;10.60;3.78;;;;;;;14.65;75.83;101857.75;5126443;27;20030;-63
2022/05/27 00:22:08;;;;;;;9.65;3.40;;;;;;;14.72;75.12;101869.34;5122826;27;20438;-62
2022/05/27 00:24:36;;;;;;;10.02;3.40;;;;;;;14.72;75.78;101863.28;5116574;27;20071;-63
2022/05/27 00:27:01;;;;;;;10.10;3.80;;;;;;;14.77;76.06;101866.34;5108770;27;20539;-63
2022/05/27 00:29:27;;;;;;;9.38;3.97;;;;;;;14.67;77.06;101866.28;5108247;27;20200;-63
2022/05/27 00:31:52;;;;;;;9.85;3.85;;;;;;;14.69;77.54;101859.16;5128663;27;20027;-62
2022/05/27 00:34:17;;;;;;;9.73;3.88;;;;;;;14.64;77.55;101856.09;5127949;27;20473;-62
2022/05/27 00:36:43;;;;;;;10.00;3.55;;;;;;;14.57;77.57;101862.78;5129408;27;20058;-65
2022/05/27 00:39:08;;;;;;;11.57;4.00;;;;;;;14.64;77.44;101856.09;5124219;27;20024;-63
2022/05/27 00:41:33;;;;;;;8.40;3.95;;;;;;;14.64;77.65;101861.31;5122253;27;20027;-65
2022/05/27 00:43:59;;;;;;;9.77;3.97;;;;;;;14.67;77.39;101866.28;5128486;27;20379;-67
2022/05/27 00:46:27;;;;;;;12.38;4.57;;;;;;;14.57;77.96;101860.19;5128456;27;20027;-63
2022/05/27 00:49:02;;;;;;;12.07;4.28;;;;;;;14.54;78.18;101863.03;5128216;27;20027;-63
2022/05/27 00:51:32;;;;;;;13.30;4.32;;;;;;;14.51;78.30;101855.47;5127894;27;20447;-67
2022/05/27 00:54:11;;;;;;;9.43;4.18;;;;;;;14.55;78.28;101860.28;5126155;27;20039;-66
2022/05/27 00:56:41;;;;;;;13.73;4.53;;;;;;;14.59;78.36;101855.66;5107818;28;20027;-67
2022/05/27 00:59:32;;;;;;;10.45;4.28;;;;;;;14.63;77.99;101854.44;5128038;27;20027;-63
2022/05/27 01:01:59;;;;;;;11.23;4.95;;;;;;;14.52;78.87;101857.13;5122835;27;20046;-62
2022/05/27 01:04:27;;;;;;;10.77;4.38;;;;;;;14.53;79.62;101863.97;5128501;27;20360;-62
2022/05/27 01:06:52;;;;;;;12.38;4.90;;;;;;;14.61;79.76;101845.91;5128381;27;20038;-63
2022/05/27 01:09:18;;;;;;;11.05;5.05;;;;;;;14.52;80.63;101846.66;5126431;27;20511;-66
2022/05/27 01:12:02;;;;;;;12.27;5.05;;;;;;;14.56;80.63;101853.28;5124880;27;20398;-64
2022/05/27 01:14:30;;;;;;;12.60;5.50;;;;;;;14.50;80.95;101864.22;5109226;27;20032;-63
2022/05/27 01:17:09;;;;;;;12.60;5.53;;;;;;;14.54;81.19;101904.78;5128356;27;20023;-64
2022/05/27 01:23:07;;;;;;;7.85;2.50;;;;;;;13.89;81.71;101916.91;5117207;27;20081;-65
2022/05/27 01:25:51;;;;;;;7.30;2.38;;;;;;;13.60;82.24;101913.13;5058242;28;20059;-66
2022/05/27 01:28:45;;;;;;;6.80;2.05;;;;;;;13.54;83.32;101912.63;5046297;28;20473;-65
2022/05/27 01:31:29;;;;;;;5.75;2.33;;;;;;;13.47;85.08;101911.44;5064587;28;20068;-63
2022/05/27 01:34:21;;;;;;;5.13;2.30;;;;;;;13.44;85.23;101910.84;5064258;28;20393;-63
2022/05/27 01:37:15;;;;;;;5.95;2.60;;;;;;;13.25;86.06;101896.63;5050588;28;20080;-68
2022/05/27 01:39:43;;;;;;;5.72;2.55;;;;;;;13.32;86.37;101901.38;5044162;28;20060;-63
2022/05/27 01:42:44;;;;;;;6.70;2.45;;;;;;;13.22;86.66;101886.41;5041687;28;20048;-64
2022/05/27 01:45:36;;;;;;;6.55;2.63;;;;;;;13.31;86.58;101899.72;5063923;28;20063;-63
2022/05/27 01:48:11;;;;;;;4.55;2.20;;;;;;;13.14;85.95;101895.75;5061668;28;20573;-63
2022/05/27 01:50:52;;;;;;;7.43;3.00;;;;;;;13.16;86.80;101894.66;5056932;28;20032;-64
2022/05/27 01:53:31;;;;;;;5.85;2.35;;;;;;;13.28;86.79;101891.16;5064097;28;20495;-63
2022/05/27 01:56:10;;;;;;;6.45;2.70;;;;;;;13.15;86.85;101879.16;5051172;28;20041;-64
2022/05/27 01:58:44;;;;;;;4.43;2.50;;;;;;;13.26;86.93;101898.28;5061518;28;20035;-64
2022/05/27 02:01:17;;;;;;;6.88;2.75;;;;;;;13.24;87.15;101897.53;5073951;28;20159;-63
2022/05/27 02:03:48;;;;;;;6.60;2.83;;;;;;;13.10;87.03;101879.50;5127835;28;20023;-63
2022/05/27 02:06:31;;;;;;;6.85;2.97;;;;;;;13.34;86.49;101883.81;5127639;27;20052;-68
2022/05/27 02:09:04;;;;;;;7.75;2.90;;;;;;;13.35;87.11;101896.72;5127965;27;20027;-65
2022/05/27 02:11:30;;;;;;;5.40;2.80;;;;;;;13.26;86.58;101895.66;5122715;27;20034;-63
2022/05/27 02:14:17;;;;;;;9.90;3.20;;;;;;;13.28;87.47;101885.94;5128135;27;20023;-64
2022/05/27 02:16:49;;;;;;;8.27;3.22;;;;;;;13.29;87.15;101877.19;5127372;27;20408;-63
2022/05/27 02:19:27;;;;;;;9.85;3.55;;;;;;;13.36;87.14;101877.56;5109007;28;20027;-64
2022/05/27 02:21:58;;;;;;;;;;;;;;;13.54;85.04;101880.53;5116051;27;20031;-64
2022/05/27 02:24:38;;;;;;;8.80;3.42;;;;;;;13.35;87.21;101877.66;5130876;27;19919;-64
2022/05/27 02:27:08;;;;;;;7.30;3.17;;;;;;;13.50;86.69;101873.88;5126747;27;20110;-64
2022/05/27 02:29:36;;;;;;;8.75;3.35;;;;;;;13.43;86.43;101862.28;5110886;28;20032;-65
2022/05/27 02:32:19;;;;;;;7.82;4.00;;;;;;;13.44;88.30;101869.16;5111763;27;20020;-64
2022/05/27 02:35:07;;;;;;;8.90;4.03;;;;;;;13.47;88.23;101863.69;5130700;27;20072;-64
2022/05/27 02:37:34;;;;;;;;;;;;;;;13.66;85.71;101856.13;5131816;27;20019;-63
2022/05/27 02:40:03;;;;;;;9.77;4.85;;;;;;;13.41;87.96;101853.75;5131398;27;19911;-67
2022/05/27 02:43:05;;;;;;;8.95;4.90;;;;;;;13.48;88.71;101870.59;5131058;27;20255;-64
2022/05/27 02:45:41;;;;;;;9.00;4.93;;;;;;;13.41;88.82;101864.16;5126833;27;20031;-67
2022/05/27 02:48:25;;;;;;;10.52;4.93;;;;;;;13.41;88.42;101869.38;5129523;27;20023;-68
2022/05/27 02:51:16;;;;;;;9.90;4.90;;;;;;;13.50;88.15;101873.88;5124379;27;20031;-64
2022/05/27 02:53:47;;;;;;;8.52;5.13;;;;;;;13.38;88.23;101870.44;5129509;27;20367;-64
2022/05/27 02:56:15;;;;;;;9.48;5.10;;;;;;;13.41;88.55;101875.41;5110389;27;20054;-63
2022/05/27 02:58:41;;;;;;;9.80;5.22;;;;;;;13.29;88.28;101855.50;5113892;27;20088;-65
2022/05/27 03:01:08;;;;;;;10.20;5.53;;;;;;;13.23;89.09;101872.44;5117681;27;20015;-63
2022/05/27 03:03:34;;;;;;;9.77;5.85;;;;;;;13.16;89.49;101871.22;5130339;27;20462;-67
2022/05/27 03:06:25;;;;;;;10.27;5.95;;;;;;;13.33;89.24;101871.75;5130519;27;20027;-64
2022/05/27 03:08:50;;;;;;;11.05;5.57;;;;;;;13.31;88.95;101868.44;5130332;27;20416;-63
2022/05/27 03:11:26;;;;;;;10.10;5.63;;;;;;;13.25;89.06;101859.31;5130581;27;20546;-63
2022/05/27 03:14:04;;;;;;;11.45;6.05;;;;;;;13.36;89.00;101866.28;5130551;27;20034;-64
2022/05/27 03:16:45;;;;;;;11.40;6.00;;;;;;;13.34;89.33;101862.97;5125180;27;20045;-66
2022/05/27 03:19:32;;;;;;;11.23;6.60;;;;;;;13.21;90.25;101869.13;5126711;27;20034;-63
2022/05/27 03:22:15;;;;;;;9.77;6.32;;;;;;;13.31;90.14;101863.25;5130324;27;20064;-67
2022/05/27 03:24:55;;;;;;;12.70;7.00;;;;;;;13.23;90.46;101875.03;5130030;27;20126;-64
2022/05/27 03:27:58;;;;;;;11.05;6.38;;;;;;;13.35;89.75;101872.44;5130005;27;20035;-65
2022/05/27 03:30:34;;;;;;;12.20;6.45;;;;;;;13.38;89.68;101869.63;5065274;28;20520;-63
2022/05/27 03:33:20;;;;;;;13.15;7.00;;;;;;;13.36;90.18;101863.69;5057965;28;20064;-64
2022/05/27 03:36:13;;;;;;;12.75;7.35;;;;;;;13.35;90.22;101870.69;5066337;28;20164;-64
2022/05/27 03:38:54;;;;;;;16.00;7.47;;;;;;;13.34;89.61;101878.63;5065789;28;20111;-64
2022/05/27 03:41:29;;;;;;;15.43;7.63;;;;;;;13.35;89.84;101880.28;5056955;28;20455;-64
2022/05/27 03:43:54;;;;;;;17.23;7.85;;;;;;;13.36;89.27;101866.28;5048943;28;20045;-63
2022/05/27 03:46:33;;;;;;;18.17;8.10;;;;;;;13.35;90.00;101869.84;5054916;28;20395;-63
2022/05/27 03:48:59;;;;;;;15.35;7.50;;;;;;;13.25;89.99;101870.56;5065889;28;20035;-68
2022/05/27 03:51:28;;;;;;;18.05;8.25;;;;;;;13.25;89.82;101869.75;5062429;28;20043;-65
2022/05/27 03:54:05;;;;;;;20.10;7.95;;;;;;;13.32;89.58;101870.09;5064720;28;20071;-67
2022/05/27 03:56:42;;;;;;;20.63;8.13;;;;;;;13.43;89.55;101875.31;5064785;28;20081;-63
2022/05/27 03:59:12;;;;;;;19.08;7.75;;;;;;;13.40;89.63;101883.34;5066213;28;20107;-64
2022/05/27 04:01:39;;;;;;;17.80;7.68;;;;;;;13.35;89.93;101862.03;5065729;28;20408;-63
2022/05/27 04:04:07;;;;;;;19.48;7.70;;;;;;;13.40;89.51;101868.56;5062633;28;20032;-63
2022/05/27 04:06:33;;;;;;;23.05;8.75;;;;;;;13.35;90.18;101867.25;5086475;27;20046;-63
2022/05/27 04:08:59;;;;;;;15.32;7.50;;;;;;;13.43;89.61;101875.31;5119235;27;20061;-66
2022/05/27 04:11:25;;;;;;;18.35;7.68;;;;;;;13.42;89.70;101876.25;5122814;27;20023;-64
2022/05/27 04:13:51;;;;;;;21.35;7.57;;;;;;;13.41;89.37;101875.41;5112129;27;20035;-66
2022/05/27 04:16:17;;;;;;;22.05;8.57;;;;;;;13.23;89.69;101877.66;5115576;27;20345;-66
2022/05/27 04:18:43;;;;;;;21.77;8.40;;;;;;;13.37;89.47;101873.19;5113257;27;20060;-65
2022/05/27 04:21:09;;;;;;;18.63;7.65;;;;;;;13.21;89.51;101889.97;5119275;27;20495;-65
2022/05/27 04:23:35;;;;;;;19.77;8.48;;;;;;;13.22;90.55;101890.81;5108765;27;20598;-68
2022/05/27 04:26:00;;;;;;;18.45;7.88;;;;;;;13.35;89.83;101880.28;5113541;27;20027;-64
2022/05/27 04:28:26;;;;;;;18.20;7.80;;;;;;;13.26;89.80;101874.81;5114602;27;20019;-65
2022/05/27 04:30:51;;;;;;;19.42;8.40;;;;;;;13.24;90.49;101894.09;5117996;27;20112;-66
2022/05/27 04:33:17;;;;;;;16.70;8.15;;;;;;;13.18;90.76;101879.75;5123679;27;20046;-63
2022/05/27 04:35:42;;;;;;;20.08;8.18;;;;;;;13.10;90.90;101869.09;5108231;28;20037;-63
2022/05/27 04:38:08;;;;;;;19.75;8.25;;;;;;;13.21;91.30;101879.56;5108512;27;20390;-63
2022/05/27 04:40:35;;;;;;;22.25;8.13;;;;;;;13.27;91.03;101873.88;5112977;27;20034;-66
2022/05/27 04:43:02;;;;;;;19.25;8.15;;;;;;;13.32;90.12;101880.53;5117950;27;20031;-63
2022/05/27 04:45:28;;;;;;;21.33;8.50;;;;;;;13.25;91.07;101883.59;5121582;27;20114;-64
2022/05/27 04:47:54;;;;;;;22.17;8.43;;;;;;;13.22;90.83;101889.03;5118745;27;20332;-63
2022/05/27 04:50:20;;;;;;;22.63;7.85;;;;;;;13.31;90.60;101889.28;5120400;27;20020;-68
2022/05/27 04:52:45;;;;;;;17.25;7.97;;;;;;;13.31;91.00;101895.31;5116392;27;20024;-63
2022/05/27 04:55:14;;;;;;;19.50;7.85;;;;;;;13.27;90.92;101889.50;5120559;27;20103;-63
2022/05/27 04:57:41;;;;;;;;;;;;;;;13.50;89.49;101892.13;5123080;27;20019;-65
2022/05/27 05:00:23;;;;;;;19.13;7.07;;;;;;;13.32;90.74;101890.94;5110556;27;19915;-67
2022/05/27 05:02:49;;;;;;;19.05;7.68;;;;;;;13.31;89.84;101890.13;5111186;27;20038;-64
2022/05/27 05:05:17;;;;;;;17.05;6.70;;;;;;;13.40;89.69;101896.38;5125675;27;20019;-64
2022/05/27 05:07:45;;;;;;;16.75;6.28;;;;;;;13.32;89.04;101890.94;5108479;27;20443;-63
2022/05/27 05:10:12;;;;;;;17.65;6.60;;;;;;;13.31;89.26;101878.88;5128652;27;20494;-64
2022/05/27 05:12:38;;;;;;;17.67;6.83;;;;;;;13.43;89.96;101890.97;5127606;27;20031;-67
2022/05/27 05:15:04;;;;;;;14.80;6.20;;;;;;;13.42;89.39;101894.47;5128350;27;20113;-65
2022/05/27 05:17:29;;;;;;;16.85;6.35;;;;;;;13.55;89.34;101890.84;5128018;27;20018;-64
2022/05/27 05:19:55;;;;;;;16.85;5.93;;;;;;;13.52;88.20;101898.03;5125389;27;20380;-64
2022/05/27 05:22:22;;;;;;;14.25;5.55;;;;;;;13.45;88.28;101894.25;5126270;27;20111;-63
2022/05/27 05:24:48;;;;;;;11.65;5.10;;;;;;;13.60;87.80;101900.91;5113427;27;20403;-63
2022/05/27 05:27:14;;;;;;;16.50;5.70;;;;;;;13.61;87.92;101907.78;5107707;28;20089;-63
2022/05/27 05:29:40;;;;;;;15.50;5.20;;;;;;;13.59;87.36;101920.13;5107790;28;20049;-65
2022/05/27 05:32:06;;;;;;;12.43;5.07;;;;;;;13.50;86.84;101912.97;5113192;27;20038;-63
2022/05/27 05:34:31;;;;;;;14.38;5.18;;;;;;;13.50;87.15;101915.59;5112807;27;20040;-64
2022/05/27 05:36:57;;;;;;;13.20;4.70;;;;;;;13.42;86.54;101923.16;5120825;27;20019;-64
2022/05/27 05:39:24;;;;;;;13.85;5.10;;;;;;;13.48;86.32;101922.72;5109351;27;20063;-64
2022/05/27 05:42:01;;;;;;;13.45;5.10;;;;;;;13.50;86.97;101920.81;5114877;28;20012;-64
2022/05/27 05:44:27;;;;;;;12.20;4.80;;;;;;;13.47;85.77;101921.03;5120039;27;20031;-64
2022/05/27 05:46:54;;;;;;;13.55;4.88;;;;;;;13.39;86.06;101926.00;5128404;27;20027;-63
2022/05/27 05:49:19;;;;;;;12.07;4.28;;;;;;;13.50;85.54;101921.63;5127237;27;20023;-64
2022/05/27 05:51:45;;;;;;;14.13;4.88;;;;;;;13.47;85.62;101926.25;5121783;28;20049;-66
2022/05/27 05:54:11;;;;;;;13.48;4.95;;;;;;;13.48;85.43;101927.91;5129872;27;20550;-65
2022/05/27 05:56:36;;;;;;;14.88;4.55;;;;;;;13.55;85.52;101929.09;5131765;27;20103;-64
2022/05/27 05:59:02;;;;;;;10.45;4.38;;;;;;;13.62;84.55;101934.69;5131176;27;20023;-64
2022/05/27 06:01:27;;;;;;;12.30;4.65;;;;;;;13.66;84.28;101936.94;5129444;27;20074;-64
2022/05/27 06:03:53;;;;;;;11.32;4.30;;;;;;;13.69;84.15;101936.69;5129328;27;20457;-67
2022/05/27 06:06:19;;;;;;;13.45;4.40;;;;;;;13.76;85.33;101942.25;5125519;27;20031;-64
2022/05/27 06:08:44;;;;;;;14.15;4.75;;;;;;;13.79;83.96;101942.84;5131926;27;20027;-63
2022/05/27 06:11:09;;;;;;;10.13;3.80;;;;;;;13.81;83.71;101930.50;5119829;27;20356;-64
2022/05/27 06:13:40;;;;;;;13.25;4.07;;;;;;;13.77;81.28;101939.53;5111065;28;20489;-64
2022/05/27 06:16:06;;;;;;;9.10;3.55;;;;;;;13.80;81.67;101948.91;5117083;27;20023;-65
2022/05/27 06:18:32;;;;;;;11.98;3.30;;;;;;;13.78;79.83;101951.63;5121631;27;20042;-66
2022/05/27 06:20:58;;;;;;;12.27;3.03;;;;;;;13.77;78.43;101960.41;5125442;27;20023;-65
2022/05/27 06:23:28;;;;;;;11.38;3.30;;;;;;;13.80;79.36;101954.94;5131273;27;20027;-67
2022/05/27 06:25:58;;;;;;;10.18;3.50;;;;;;;13.80;79.70;101959.31;5126840;27;20535;-63
2022/05/27 06:36:36;;;;;;;10.15;3.35;;;;;;;13.73;74.29;101958.97;5115801;27;20132;-63
2022/05/27 06:39:05;;;;;;;12.15;3.13;;;;;;;13.64;74.55;101959.66;5116196;27;20035;-66
2022/05/27 06:41:31;;;;;;;11.15;3.42;;;;;;;13.76;76.10;101968.31;5115743;27;20027;-63
2022/05/27 06:43:57;;;;;;;11.27;3.30;;;;;;;13.74;74.18;101965.00;5111403;27;20033;-64
2022/05/27 06:46:23;;;;;;;12.52;3.53;;;;;;;13.76;76.12;101957.88;5122831;27;20027;-63
2022/05/27 06:48:48;;;;;;;11.63;3.40;;;;;;;13.84;74.21;101975.56;5126353;27;20359;-65
2022/05/27 06:51:13;;;;;;;10.75;3.78;;;;;;;13.80;73.89;101967.97;5126507;27;20030;-66
2022/05/27 06:53:39;;;;;;;10.27;2.88;;;;;;;13.81;72.15;101974.84;5129909;27;20470;-63
2022/05/27 06:56:07;;;;;;;11.02;2.85;;;;;;;13.92;70.90;101973.19;5114853;27;20016;-64
2022/05/27 06:58:33;;;;;;;9.75;3.08;;;;;;;13.90;70.64;101975.09;5129490;27;20613;-65
2022/05/27 07:00:59;;;;;;;9.77;2.88;;;;;;;13.91;67.11;101981.97;5130193;27;20023;-64
2022/05/27 07:03:24;;;;;;;10.65;3.05;;;;;;;13.88;66.87;101987.41;5120157;27;20019;-63
2022/05/27 07:05:50;;;;;;;10.48;3.30;;;;;;;14.00;66.54;101992.53;5119841;27;20157;-63
2022/05/27 07:08:15;;;;;;;10.48;3.13;;;;;;;13.97;62.58;101990.16;5119342;27;20486;-63
2022/05/27 07:10:41;;;;;;;13.25;3.38;;;;;;;13.90;63.25;101990.75;5127649;27;21997;-62
2022/05/27 07:13:06;;;;;;;11.95;3.03;;;;;;;13.84;61.41;101979.00;5109961;27;20035;-63
2022/05/27 07:15:31;;;;;;;12.93;3.30;;;;;;;13.77;60.09;101991.69;5109619;27;20033;-65
2022/05/27 07:17:57;;;;;;;9.98;2.85;;;;;;;13.79;61.86;101988.97;5110019;28;20023;-63
2022/05/27 07:20:23;;;;;;;12.43;3.33;;;;;;;13.82;63.04;101983.53;5111412;27;20030;-66
2022/05/27 07:22:49;;;;;;;10.55;3.00;;;;;;;13.85;61.49;101987.66;5111116;27;20027;-63
2022/05/27 07:25:15;;;;;;;8.93;2.65;;;;;;;13.88;63.68;101971.75;5118681;27;20119;-64
2022/05/27 07:27:41;;;;;;;10.98;3.20;;;;;;;14.01;62.30;101988.16;5119432;27;20548;-62
2022/05/27 07:30:09;;;;;;;14.02;3.20;;;;;;;14.06;62.17;101999.06;5117590;27;20027;-63
2022/05/27 07:32:36;;;;;;;13.57;3.30;;;;;;;14.14;61.70;101998.44;5119424;27;20027;-65
2022/05/27 07:35:05;;;;;;;12.85;3.28;;;;;;;14.02;60.66;101981.97;5116157;27;20031;-64
2022/05/27 07:37:31;;;;;;;10.60;3.15;;;;;;;14.19;63.90;101999.75;5113773;27;20015;-63
2022/05/27 07:39:56;;;;;;;11.20;3.00;;;;;;;14.31;62.24;102001.41;5117482;27;20025;-63
2022/05/27 07:42:22;;;;;;;10.98;2.85;;;;;;;14.28;62.19;101996.44;5116178;27;20406;-62
2022/05/27 07:44:48;;;;;;;12.00;3.22;;;;;;;14.26;60.93;102008.75;5118268;27;20029;-63
2022/05/27 07:47:13;;;;;;;11.10;3.20;;;;;;;14.33;62.79;102002.09;5114742;27;20035;-65
2022/05/27 07:49:38;;;;;;;10.68;3.20;;;;;;;14.40;61.83;102004.25;5121860;27;20550;-65
2022/05/27 07:52:05;;;;;;;10.30;3.10;;;;;;;14.35;62.57;102008.03;5124482;27;20031;-66
2022/05/27 07:54:31;;;;;;;11.27;2.83;;;;;;;14.44;62.92;102008.25;5109351;27;20038;-63
2022/05/27 07:56:57;;;;;;;12.15;3.45;;;;;;;14.43;61.42;102012.66;5117240;27;20024;-63
2022/05/27 07:59:22;;;;;;;11.55;3.05;;;;;;;14.39;60.88;102002.56;5112744;27;20025;-63
2022/05/27 08:01:48;;;;;;;10.70;2.75;;;;;;;14.47;62.19;102010.66;5129259;27;20542;-65
2022/05/27 08:04:14;;;;;;;10.02;2.95;;;;;;;14.58;62.29;102003.63;5117547;27;20546;-67
2022/05/27 08:06:40;;;;;;;11.38;3.35;;;;;;;14.76;62.65;102016.19;5110971;27;20031;-62
2022/05/27 08:09:05;;;;;;;12.02;3.55;;;;;;;14.91;63.23;102011.47;5115586;27;20015;-63
2022/05/27 08:11:30;;;;;;;12.93;3.38;;;;;;;14.86;60.66;102023.16;5112679;27;20387;-63
2022/05/27 08:13:56;;;;;;;10.57;3.03;;;;;;;14.75;60.54;102020.56;5114406;27;20102;-65
2022/05/27 08:16:22;;;;;;;9.80;3.03;;;;;;;14.72;60.67;102031.25;5127695;27;20419;-63
2022/05/27 08:18:47;;;;;;;11.82;3.10;;;;;;;14.67;60.71;102022.94;5117154;27;20050;-67
2022/05/27 08:21:13;;;;;;;10.45;2.88;;;;;;;14.73;62.66;102022.47;5124117;27;20110;-63
2022/05/27 08:23:38;;;;;;;10.77;3.40;;;;;;;14.70;60.87;102027.94;5115793;27;20531;-64
2022/05/27 08:26:03;;;;;;;12.15;3.25;;;;;;;14.69;61.18;102025.47;5126816;27;20043;-66
2022/05/27 08:28:29;;;;;;;10.98;3.45;;;;;;;14.71;59.15;102028.78;5118606;27;20022;-64
2022/05/27 08:30:55;;;;;;;11.98;3.15;;;;;;;14.57;59.45;102029.88;5116356;27;20027;-63
2022/05/27 08:33:25;;;;;;;11.45;3.20;;;;;;;14.58;58.13;102042.81;5128229;27;20030;-67
2022/05/27 08:38:37;;;;;;;11.02;3.30;;;;;;;14.73;57.17;102040.75;5122098;27;20037;-64
2022/05/27 08:41:27;;;;;;;11.93;3.22;;;;;;;14.84;58.24;102040.72;5126161;27;20117;-66
2022/05/27 08:44:19;;;;;;;11.73;3.25;;;;;;;15.02;59.16;102035.78;5123289;27;20075;-63
2022/05/27 08:46:59;;;;;;;11.70;3.33;;;;;;;15.27;58.64;102037.25;5128895;27;20478;-63
2022/05/27 08:49:34;;;;;;;11.25;3.50;;;;;;;15.27;56.86;102047.69;5128373;27;20030;-64
2022/05/27 08:52:12;;;;;;;11.07;3.35;;;;;;;15.34;57.83;102040.19;5126264;27;20052;-64
2022/05/27 08:54:52;;;;;;;10.43;3.35;;;;;;;15.36;57.84;102046.91;5115317;27;20027;-65
2022/05/27 09:00:14;;;;;;;13.00;3.30;;;;;;;15.57;56.64;102040.88;5119759;27;20110;-63
2022/05/27 09:03:00;;;;;;;12.57;3.67;;;;;;;15.48;56.65;102033.78;5127815;27;20126;-68
2022/05/27 09:05:36;;;;;;;12.00;3.30;;;;;;;15.54;57.12;102043.75;5117786;27;20084;-64
2022/05/27 09:08:12;;;;;;;12.30;3.20;;;;;;;15.53;55.17;102052.53;5117642;27;20532;-66
2022/05/27 09:10:56;;;;;;;11.57;3.58;;;;;;;15.47;55.63;102042.59;5112430;27;20415;-67
2022/05/27 09:13:34;;;;;;;11.07;3.40;;;;;;;15.54;55.30;102043.75;5128295;27;20034;-64
2022/05/27 09:16:17;;;;;;;12.15;3.20;;;;;;;15.63;54.43;102053.47;5124712;27;20093;-64
2022/05/27 09:18:42;;;;;;;12.32;3.50;;;;;;;15.63;53.52;102053.47;5127998;27;20039;-65
2022/05/27 09:21:29;;;;;;;10.80;3.22;;;;;;;15.74;55.12;102058.66;5121237;27;20022;-63
2022/05/27 09:24:09;;;;;;;11.13;3.30;;;;;;;15.74;55.68;102066.50;5124294;27;20055;-67
2022/05/27 09:26:50;;;;;;;12.40;3.35;;;;;;;15.83;54.93;102055.25;5117301;27;20023;-68
2022/05/27 09:29:27;;;;;;;9.90;2.83;;;;;;;15.86;55.15;102057.59;5121579;27;20081;-64
2022/05/27 09:32:05;;;;;;;10.50;3.15;;;;;;;15.98;55.24;102062.75;5118717;27;20110;-63
2022/05/27 09:34:33;;;;;;;10.53;3.20;;;;;;;16.22;54.04;102047.56;5111948;27;20061;-63
2022/05/27 09:37:03;;;;;;;11.65;3.63;;;;;;;16.36;55.86;102057.69;5109963;27;20368;-64
2022/05/27 09:39:28;;;;;;;11.48;3.13;;;;;;;16.28;54.00;102054.91;5118055;27;20105;-65
2022/05/27 09:42:15;;;;;;;11.07;3.03;;;;;;;16.31;53.32;102065.13;5121789;27;20035;-66
2022/05/27 09:44:50;;;;;;;10.95;3.00;;;;;;;16.17;53.68;102057.59;5108500;28;20027;-64
2022/05/27 09:47:17;;;;;;;10.75;2.83;;;;;;;16.26;53.62;102059.44;5115283;28;20039;-64
2022/05/27 09:49:45;;;;;;;12.45;2.97;;;;;;;16.36;55.49;102052.47;5117438;28;20023;-65
2022/05/27 09:52:10;;;;;;;12.02;3.28;;;;;;;16.16;54.42;102066.41;5118051;27;20025;-65
2022/05/27 09:55:00;;;;;;;10.18;3.10;;;;;;;15.91;53.96;102073.75;5110369;27;20032;-64
2022/05/27 09:57:28;;;;;;;10.80;3.30;;;;;;;15.57;52.61;102085.34;5113015;28;20031;-63
2022/05/27 10:00:04;;;;;;;11.70;3.42;;;;;;;15.44;53.61;102058.56;5125096;27;20058;-63
2022/05/27 10:02:36;;;;;;;11.98;3.33;;;;;;;15.47;54.47;102064.34;5108312;28;20027;-64
2022/05/27 10:05:05;;;;;;;9.75;3.20;;;;;;;15.91;52.95;102072.91;5111333;28;20043;-64
2022/05/27 10:07:36;;;;;;;;;;;;;;;16.15;55.33;102075.25;5116851;28;20031;-62
2022/05/27 10:10:35;;;;;;;11.13;3.30;;;;;;;16.16;54.40;102069.03;5127473;27;20304;-62
2022/05/27 10:13:30;;;;;;;11.52;3.50;;;;;;;15.93;53.77;102077.06;5122932;27;20429;-64
2022/05/27 10:16:03;;;;;;;9.82;3.20;;;;;;;15.91;52.98;102083.38;5117180;27;20514;-64
2022/05/27 10:18:29;;;;;;;10.27;3.53;;;;;;;15.85;52.17;102070.81;5125903;28;20037;-65
2022/05/27 10:21:14;;;;;;;13.00;3.90;;;;;;;15.94;52.76;102072.66;5119526;27;20016;-64
2022/05/27 10:23:45;;;;;;;10.77;3.03;;;;;;;16.14;51.71;102068.34;5106846;27;20117;-64
2022/05/27 10:26:27;;;;;;;13.57;3.50;;;;;;;16.15;52.30;102081.31;5121307;28;20470;-67
2022/05/27 10:29:06;;;;;;;13.45;3.28;;;;;;;15.96;51.97;102075.16;5127521;28;20030;-65
2022/05/27 10:31:33;;;;;;;12.32;3.60;;;;;;;16.00;51.81;102081.75;5125223;27;20027;-63
2022/05/27 10:34:00;;;;;;;10.07;3.17;;;;;;;15.84;50.28;102077.03;5113046;27;20035;-63
2022/05/27 10:36:34;;;;;;;10.05;3.15;;;;;;;15.84;51.26;102082.25;5107050;28;20023;-64
2022/05/27 10:39:07;;;;;;;10.25;2.83;;;;;;;15.69;50.92;102088.75;5106849;28;20612;-65
2022/05/27 10:41:32;;;;;;;11.32;3.30;;;;;;;16.15;53.54;102080.47;5127576;27;20532;-64
2022/05/27 10:44:34;;;;;;;12.97;4.27;;;;;;;16.32;53.20;102085.09;5131093;27;20397;-63
2022/05/27 10:47:00;;;;;;;14.88;3.70;;;;;;;16.34;52.17;102083.16;5127211;27;20285;-65
2022/05/27 10:49:44;;;;;;;10.43;3.45;;;;;;;16.46;52.46;102076.06;5123539;27;20027;-67
2022/05/27 10:52:42;;;;;;;10.90;3.42;;;;;;;16.50;51.28;102084.47;5126725;27;20028;-65
2022/05/27 10:55:28;;;;;;;12.10;3.40;;;;;;;16.58;51.94;102092.50;5130825;27;20019;-64
2022/05/27 11:04:11;;;;;;;10.90;3.20;;;;;;;16.77;51.45;102082.09;5115508;27;20042;-67
2022/05/27 11:06:47;;;;;;;11.15;3.10;;;;;;;16.66;48.76;102090.88;5112825;27;20546;-64
2022/05/27 11:09:21;;;;;;;10.50;3.40;;;;;;;16.50;47.53;102084.47;5110299;28;20027;-64
2022/05/27 11:11:58;;;;;;;10.82;3.40;;;;;;;16.72;51.51;102079.06;5114765;27;20027;-65
2022/05/27 11:17:36;;;;;;;11.32;3.28;;;;;;;16.70;52.15;102094.91;5109259;28;20049;-66
2022/05/27 11:20:40;;;;;;;11.73;3.33;;;;;;;16.77;50.08;102092.56;5121361;27;20039;-67
2022/05/27 11:23:15;;;;;;;14.35;3.67;;;;;;;16.83;50.33;102097.28;5128864;27;20443;-65
2022/05/27 11:25:49;;;;;;;14.73;3.78;;;;;;;17.14;51.64;102087.50;5130553;27;20054;-64
2022/05/27 11:28:42;;;;;;;14.95;3.53;;;;;;;17.48;52.13;102081.84;5130054;27;20539;-67
2022/05/27 11:31:25;;;;;;;13.07;3.20;;;;;;;16.95;47.34;102096.19;5128799;27;20023;-63
2022/05/27 11:34:11;;;;;;;13.73;3.25;;;;;;;17.20;49.81;102088.75;5130573;27;20026;-64
2022/05/27 11:37:13;;;;;;;12.30;3.20;;;;;;;17.55;50.54;102082.13;5127997;27;20072;-65
2022/05/27 11:39:55;;;;;;;13.20;3.00;;;;;;;17.74;50.60;102084.75;5129957;27;20127;-66
2022/05/27 11:42:45;;;;;;;17.30;3.80;;;;;;;17.79;50.14;102098.28;5109542;28;20562;-65
2022/05/27 11:45:26;;;;;;;13.23;3.42;;;;;;;17.81;50.65;102092.88;5109743;28;20034;-66
2022/05/27 11:48:18;;;;;;;12.40;3.38;;;;;;;17.65;49.73;102103.94;5121265;27;20027;-64
2022/05/27 11:50:46;;;;;;;13.77;3.92;;;;;;;17.38;50.24;102099.41;5128436;27;20408;-64
2022/05/27 11:53:40;;;;;;;12.30;3.90;;;;;;;17.29;51.93;102093.19;5116933;27;20032;-63
2022/05/27 11:56:09;;;;;;;11.40;3.75;;;;;;;17.05;50.71;102111.13;5109730;28;20544;-64
2022/05/27 11:58:48;;;;;;;16.15;3.80;;;;;;;17.12;52.00;102099.13;5109236;28;20483;-64
2022/05/27 12:01:54;;;;;;;14.32;3.88;;;;;;;17.21;53.44;102100.94;5127164;27;20137;-67
2022/05/27 12:04:44;;;;;;;17.48;4.47;;;;;;;17.37;51.95;102089.88;5120652;27;20091;-64
2022/05/27 12:07:31;;;;;;;15.77;4.43;;;;;;;17.20;52.11;102094.00;5126388;27;20027;-63
2022/05/27 12:10:08;;;;;;;14.98;4.00;;;;;;;17.10;51.19;102106.31;5112402;27;20027;-65